Date,TemperatureHighF,TemperatureAvgF,TemperatureLowF,DewpointHighF,DewpointAvgF,DewpointLowF,HumidityHigh,HumidityAvg,HumidityLow,PressureMaxIn,PressureMinIn,WindSpeedMaxMPH,WindSpeedAvgMPH,GustSpeedMaxMPH,PrecipitationSumIn
2013-2-1,25,20,12,18,7,0,87,58,44,29.66,29.15,18,9,28,0.00
2013-2-2,21,16,10,19,8,1,89,69,45,29.67,29.32,11,3,17,0.00
2013-2-3,32,24,20,24,19,12,91,81,64,29.33,29.12,15,3,26,0.01
2013-2-4,33,24,17,25,13,6,90,64,42,29.39,29.20,16,6,24,0.00
2013-2-5,35,30,26,30,27,24,94,87,78,29.26,29.18,11,2,16,0.00
2013-2-6,36,31,26,26,22,15,84,71,53,29.68,29.24,11,5,17,0.00
2013-2-7,33,28,25,24,18,14,82,65,57,29.75,29.54,8,2,12,0.00
2013-2-8,35,30,26,33,27,18,96,86,70,29.55,29.10,21,4,34,0.04
2013-2-9,36,27,21,18,13,9,74,57,41,29.71,29.26,21,8,33,0.00
2013-2-10,42,31,22,17,12,7,58,45,28,29.77,29.53,8,3,15,0.00
2013-2-11,55,42,31,46,33,16,97,77,27,29.54,29.01,16,4,25,0.24
2013-2-12,48,40,33,29,25,23,67,54,39,29.33,29.15,18,8,31,0.00
2013-2-13,38,33,29,30,25,21,94,74,57,29.30,29.02,4,1,10,0.00
2013-2-14,45,36,28,30,26,23,96,70,50,29.32,29.10,10,3,16,0.13
2013-2-15,49,39,32,33,29,23,95,68,48,29.35,29.26,10,3,16,0.02
2013-2-16,33,30,24,31,23,12,95,76,54,29.33,29.18,0,0,0,0.02
2013-2-17,26,20,16,17,9,1,86,61,46,29.50,29.17,18,9,28,0.00
2013-2-18,39,26,14,15,6,1,63,45,23,29.65,29.44,15,6,23,0.00
2013-2-19,40,34,29,36,25,14,93,70,43,29.44,29.01,16,5,29,0.18
2013-2-20,29,23,19,20,10,5,70,57,45,29.45,29.15,17,11,29,0.00
2013-2-21,33,24,18,14,11,8,72,59,43,29.65,29.41,17,7,23,0.00
2013-2-22,27,25,22,24,19,13,92,78,65,29.69,29.52,5,2,9,0.00
2013-2-23,45,35,26,40,33,24,96,92,81,29.52,29.16,4,0,8,0.01
2013-2-24,42,35,27,37,27,17,97,74,48,29.42,29.13,15,7,23,0.01
2013-2-25,47,34,26,22,19,16,72,55,35,29.53,29.42,11,3,16,0.00
2013-2-26,36,33,29,35,27,20,97,81,62,29.55,29.01,8,2,16,0.69
2013-2-27,48,39,33,39,33,30,98,81,55,29.02,28.90,17,5,24,0.11
2013-2-28,40,36,32,33,28,24,93,74,57,29.06,28.96,11,5,17,0.01